sensor_id;sensor_type;location;lat;lon;timestamp;P1;durP1;ratioP1;P2;durP2;ratioP2
55186;SDS011;55457;52.002;5.464;2024-03-23T00:53:33;8.73;;;3.10;;
55186;SDS011;55457;52.002;5.464;2024-03-23T00:55:59;7.57;;;2.80;;
55186;SDS011;55457;52.002;5.464;2024-03-23T00:58:24;7.10;;;2.95;;
55186;SDS011;55457;52.002;5.464;2024-03-23T01:00:50;8.40;;;2.55;;
55186;SDS011;55457;52.002;5.464;2024-03-23T01:03:15;5.95;;;2.72;;
55186;SDS011;55457;52.002;5.464;2024-03-23T01:05:41;8.98;;;2.70;;
55186;SDS011;55457;52.002;5.464;2024-03-23T01:08:06;9.25;;;2.83;;
55186;SDS011;55457;52.002;5.464;2024-03-23T01:10:31;8.60;;;2.80;;
55186;SDS011;55457;52.002;5.464;2024-03-23T01:12:57;7.22;;;2.88;;
55186;SDS011;55457;52.002;5.464;2024-03-23T01:15:22;9.38;;;3.70;;
55186;SDS011;55457;52.002;5.464;2024-03-23T01:17:47;7.70;;;2.72;;
55186;SDS011;55457;52.002;5.464;2024-03-23T01:20:12;7.85;;;2.95;;
55186;SDS011;55457;52.002;5.464;2024-03-23T01:22:38;9.57;;;2.60;;
55186;SDS011;55457;52.002;5.464;2024-03-23T01:25:03;11.13;;;2.97;;
55186;SDS011;55457;52.002;5.464;2024-03-23T01:27:29;7.57;;;3.10;;
55186;SDS011;55457;52.002;5.464;2024-03-23T01:29:54;8.77;;;3.15;;
55186;SDS011;55457;52.002;5.464;2024-03-23T01:32:19;8.25;;;2.97;;
55186;SDS011;55457;52.002;5.464;2024-03-23T01:34:45;6.72;;;3.15;;
55186;SDS011;55457;52.002;5.464;2024-03-23T01:37:10;5.53;;;2.47;;
55186;SDS011;55457;52.002;5.464;2024-03-23T01:39:35;5.65;;;2.45;;
55186;SDS011;55457;52.002;5.464;2024-03-23T01:42:01;12.10;;;2.83;;
55186;SDS011;55457;52.002;5.464;2024-03-23T01:44:26;6.65;;;2.33;;
55186;SDS011;55457;52.002;5.464;2024-03-23T01:46:52;9.05;;;3.03;;
55186;SDS011;55457;52.002;5.464;2024-03-23T01:49:17;7.70;;;2.47;;
55186;SDS011;55457;52.002;5.464;2024-03-23T01:51:42;8.55;;;2.72;;
55186;SDS011;55457;52.002;5.464;2024-03-23T01:54:08;10.48;;;3.03;;
55186;SDS011;55457;52.002;5.464;2024-03-23T01:56:34;6.30;;;2.63;;
55186;SDS011;55457;52.002;5.464;2024-03-23T01:59:03;8.60;;;2.47;;
55186;SDS011;55457;52.002;5.464;2024-03-23T02:01:29;7.93;;;2.63;;
55186;SDS011;55457;52.002;5.464;2024-03-23T02:03:55;9.30;;;3.40;;
55186;SDS011;55457;52.002;5.464;2024-03-23T02:06:20;9.80;;;3.03;;
55186;SDS011;55457;52.002;5.464;2024-03-23T02:08:45;9.20;;;3.35;;
55186;SDS011;55457;52.002;5.464;2024-03-23T02:11:11;8.25;;;2.55;;
55186;SDS011;55457;52.002;5.464;2024-03-23T02:13:36;9.93;;;3.33;;
55186;SDS011;55457;52.002;5.464;2024-03-23T02:16:01;8.20;;;3.15;;
55186;SDS011;55457;52.002;5.464;2024-03-23T02:18:27;11.65;;;2.70;;
55186;SDS011;55457;52.002;5.464;2024-03-23T02:20:52;9.60;;;3.70;;
55186;SDS011;55457;52.002;5.464;2024-03-23T02:23:17;10.35;;;3.08;;
55186;SDS011;55457;52.002;5.464;2024-03-23T02:25:43;13.32;;;3.85;;
55186;SDS011;55457;52.002;5.464;2024-03-23T02:28:09;9.45;;;3.35;;
55186;SDS011;55457;52.002;5.464;2024-03-23T02:30:34;7.57;;;2.83;;
55186;SDS011;55457;52.002;5.464;2024-03-23T02:33:00;9.63;;;3.33;;
55186;SDS011;55457;52.002;5.464;2024-03-23T02:35:25;8.32;;;3.28;;
55186;SDS011;55457;52.002;5.464;2024-03-23T02:37:51;6.75;;;2.80;;
55186;SDS011;55457;52.002;5.464;2024-03-23T02:40:17;6.45;;;3.42;;
55186;SDS011;55457;52.002;5.464;2024-03-23T02:42:42;8.80;;;2.50;;
55186;SDS011;55457;52.002;5.464;2024-03-23T02:45:07;7.10;;;2.45;;
55186;SDS011;55457;52.002;5.464;2024-03-23T02:47:33;7.15;;;3.10;;
55186;SDS011;55457;52.002;5.464;2024-03-23T02:49:58;8.25;;;2.78;;
55186;SDS011;55457;52.002;5.464;2024-03-23T02:52:24;7.18;;;2.50;;
55186;SDS011;55457;52.002;5.464;2024-03-23T02:54:49;7.55;;;3.28;;
55186;SDS011;55457;52.002;5.464;2024-03-23T02:57:14;6.93;;;2.35;;
55186;SDS011;55457;52.002;5.464;2024-03-23T02:59:40;6.85;;;2.28;;
55186;SDS011;55457;52.002;5.464;2024-03-23T03:02:05;10.55;;;3.03;;
55186;SDS011;55457;52.002;5.464;2024-03-23T03:04:31;9.77;;;2.60;;
55186;SDS011;55457;52.002;5.464;2024-03-23T03:06:57;6.85;;;2.40;;
55186;SDS011;55457;52.002;5.464;2024-03-23T03:09:22;7.43;;;2.58;;
55186;SDS011;55457;52.002;5.464;2024-03-23T03:11:48;8.80;;;2.72;;
55186;SDS011;55457;52.002;5.464;2024-03-23T03:14:13;10.98;;;3.03;;
55186;SDS011;55457;52.002;5.464;2024-03-23T03:16:38;9.63;;;3.17;;
55186;SDS011;55457;52.002;5.464;2024-03-23T03:19:04;5.65;;;2.00;;
55186;SDS011;55457;52.002;5.464;2024-03-23T03:21:29;8.93;;;2.90;;
55186;SDS011;55457;52.002;5.464;2024-03-23T03:23:54;4.70;;;2.03;;
55186;SDS011;55457;52.002;5.464;2024-03-23T03:26:21;6.70;;;2.53;;
55186;SDS011;55457;52.002;5.464;2024-03-23T03:28:47;6.30;;;2.80;;
55186;SDS011;55457;52.002;5.464;2024-03-23T03:31:14;10.27;;;2.78;;
55186;SDS011;55457;52.002;5.464;2024-03-23T03:33:40;7.15;;;2.30;;
55186;SDS011;55457;52.002;5.464;2024-03-23T03:36:05;6.80;;;2.45;;
55186;SDS011;55457;52.002;5.464;2024-03-23T03:38:31;5.85;;;2.13;;
55186;SDS011;55457;52.002;5.464;2024-03-23T03:40:56;5.70;;;2.63;;
55186;SDS011;55457;52.002;5.464;2024-03-23T03:43:23;10.57;;;2.40;;
55186;SDS011;55457;52.002;5.464;2024-03-23T03:45:52;8.55;;;2.33;;
55186;SDS011;55457;52.002;5.464;2024-03-23T03:48:18;5.40;;;2.20;;
55186;SDS011;55457;52.002;5.464;2024-03-23T03:50:44;7.18;;;2.60;;
55186;SDS011;55457;52.002;5.464;2024-03-23T03:53:09;6.65;;;3.10;;
55186;SDS011;55457;52.002;5.464;2024-03-23T03:55:34;6.30;;;2.90;;
55186;SDS011;55457;52.002;5.464;2024-03-23T03:58:00;8.43;;;2.75;;
55186;SDS011;55457;52.002;5.464;2024-03-23T04:00:25;5.38;;;2.20;;
55186;SDS011;55457;52.002;5.464;2024-03-23T04:02:50;8.18;;;2.75;;
55186;SDS011;55457;52.002;5.464;2024-03-23T04:05:16;5.75;;;3.08;;
55186;SDS011;55457;52.002;5.464;2024-03-23T04:07:41;5.05;;;2.20;;
55186;SDS011;55457;52.002;5.464;2024-03-23T04:10:07;5.03;;;2.60;;
55186;SDS011;55457;52.002;5.464;2024-03-23T04:12:33;4.32;;;1.90;;
55186;SDS011;55457;52.002;5.464;2024-03-23T04:15:01;3.83;;;2.05;;
55186;SDS011;55457;52.002;5.464;2024-03-23T04:17:29;6.65;;;2.10;;
55186;SDS011;55457;52.002;5.464;2024-03-23T04:19:57;5.13;;;2.13;;
55186;SDS011;55457;52.002;5.464;2024-03-23T04:22:22;6.28;;;2.40;;
55186;SDS011;55457;52.002;5.464;2024-03-23T04:24:49;4.18;;;1.98;;
55186;SDS011;55457;52.002;5.464;2024-03-23T04:27:15;4.93;;;2.20;;
55186;SDS011;55457;52.002;5.464;2024-03-23T04:29:40;6.00;;;2.58;;
55186;SDS011;55457;52.002;5.464;2024-03-23T04:32:05;3.75;;;1.98;;
55186;SDS011;55457;52.002;5.464;2024-03-23T04:34:31;6.95;;;2.42;;
55186;SDS011;55457;52.002;5.464;2024-03-23T04:36:57;7.78;;;2.58;;
55186;SDS011;55457;52.002;5.464;2024-03-23T04:39:23;2.80;;;1.58;;
55186;SDS011;55457;52.002;5.464;2024-03-23T04:41:49;8.80;;;2.42;;
55186;SDS011;55457;52.002;5.464;2024-03-23T04:44:15;7.18;;;2.70;;
55186;SDS011;55457;52.002;5.464;2024-03-23T04:46:40;5.22;;;2.00;;
55186;SDS011;55457;52.002;5.464;2024-03-23T04:49:05;5.13;;;2.25;;
55186;SDS011;55457;52.002;5.464;2024-03-23T04:51:35;6.38;;;1.85;;
55186;SDS011;55457;52.002;5.464;2024-03-23T04:54:03;5.93;;;2.05;;
55186;SDS011;55457;52.002;5.464;2024-03-23T04:56:29;6.45;;;2.33;;
55186;SDS011;55457;52.002;5.464;2024-03-23T04:58:54;8.27;;;2.72;;
55186;SDS011;55457;52.002;5.464;2024-03-23T05:01:20;4.90;;;2.28;;
55186;SDS011;55457;52.002;5.464;2024-03-23T05:03:45;5.80;;;2.17;;
55186;SDS011;55457;52.002;5.464;2024-03-23T05:06:10;4.90;;;1.77;;
55186;SDS011;55457;52.002;5.464;2024-03-23T05:08:35;5.93;;;2.05;;
55186;SDS011;55457;52.002;5.464;2024-03-23T05:11:01;3.10;;;1.70;;
55186;SDS011;55457;52.002;5.464;2024-03-23T05:13:26;5.50;;;2.67;;
55186;SDS011;55457;52.002;5.464;2024-03-23T05:15:52;4.22;;;1.73;;
55186;SDS011;55457;52.002;5.464;2024-03-23T05:18:18;4.70;;;2.08;;
55186;SDS011;55457;52.002;5.464;2024-03-23T05:20:44;3.25;;;1.80;;
55186;SDS011;55457;52.002;5.464;2024-03-23T05:23:09;4.72;;;2.08;;
55186;SDS011;55457;52.002;5.464;2024-03-23T05:25:34;6.25;;;2.30;;
55186;SDS011;55457;52.002;5.464;2024-03-23T05:27:59;6.00;;;2.30;;
55186;SDS011;55457;52.002;5.464;2024-03-23T05:30:25;5.07;;;2.13;;
55186;SDS011;55457;52.002;5.464;2024-03-23T05:32:50;3.22;;;2.05;;
55186;SDS011;55457;52.002;5.464;2024-03-23T05:35:15;7.43;;;2.53;;
55186;SDS011;55457;52.002;5.464;2024-03-23T05:37:41;5.35;;;2.15;;
55186;SDS011;55457;52.002;5.464;2024-03-23T05:40:06;6.63;;;1.65;;
55186;SDS011;55457;52.002;5.464;2024-03-23T05:42:33;7.00;;;2.45;;
55186;SDS011;55457;52.002;5.464;2024-03-23T05:44:58;5.95;;;2.45;;
55186;SDS011;55457;52.002;5.464;2024-03-23T05:47:24;5.80;;;2.22;;
55186;SDS011;55457;52.002;5.464;2024-03-23T05:49:49;5.03;;;2.10;;
55186;SDS011;55457;52.002;5.464;2024-03-23T05:52:16;5.75;;;2.28;;
55186;SDS011;55457;52.002;5.464;2024-03-23T05:54:42;7.63;;;1.88;;
55186;SDS011;55457;52.002;5.464;2024-03-23T05:57:07;5.30;;;2.00;;
55186;SDS011;55457;52.002;5.464;2024-03-23T05:59:33;4.50;;;2.03;;
55186;SDS011;55457;52.002;5.464;2024-03-23T06:01:59;5.18;;;2.08;;
55186;SDS011;55457;52.002;5.464;2024-03-23T06:04:24;3.78;;;1.90;;
55186;SDS011;55457;52.002;5.464;2024-03-23T06:06:50;4.13;;;1.80;;
55186;SDS011;55457;52.002;5.464;2024-03-23T06:09:17;8.32;;;2.42;;
55186;SDS011;55457;52.002;5.464;2024-03-23T06:11:42;6.38;;;2.83;;
55186;SDS011;55457;52.002;5.464;2024-03-23T06:14:08;4.40;;;1.58;;
55186;SDS011;55457;52.002;5.464;2024-03-23T06:16:33;4.10;;;1.60;;
55186;SDS011;55457;52.002;5.464;2024-03-23T06:18:58;4.38;;;1.58;;
55186;SDS011;55457;52.002;5.464;2024-03-23T06:21:24;9.70;;;2.03;;
55186;SDS011;55457;52.002;5.464;2024-03-23T06:23:52;4.97;;;2.00;;
55186;SDS011;55457;52.002;5.464;2024-03-23T06:26:18;5.55;;;1.98;;
55186;SDS011;55457;52.002;5.464;2024-03-23T06:28:44;7.07;;;2.35;;
55186;SDS011;55457;52.002;5.464;2024-03-23T06:31:09;6.88;;;1.77;;
55186;SDS011;55457;52.002;5.464;2024-03-23T06:33:35;7.70;;;2.28;;
55186;SDS011;55457;52.002;5.464;2024-03-23T06:36:00;7.28;;;1.85;;
55186;SDS011;55457;52.002;5.464;2024-03-23T06:38:27;5.35;;;1.77;;
55186;SDS011;55457;52.002;5.464;2024-03-23T06:40:52;5.60;;;2.22;;
55186;SDS011;55457;52.002;5.464;2024-03-23T06:43:17;6.07;;;2.33;;
55186;SDS011;55457;52.002;5.464;2024-03-23T06:45:43;10.32;;;2.40;;
55186;SDS011;55457;52.002;5.464;2024-03-23T06:48:08;11.10;;;2.38;;
55186;SDS011;55457;52.002;5.464;2024-03-23T06:50:34;10.63;;;2.72;;
55186;SDS011;55457;52.002;5.464;2024-03-23T06:52:59;15.02;;;3.58;;
55186;SDS011;55457;52.002;5.464;2024-03-23T06:55:26;13.68;;;3.03;;
55186;SDS011;55457;52.002;5.464;2024-03-23T06:57:53;10.63;;;3.50;;
55186;SDS011;55457;52.002;5.464;2024-03-23T07:00:18;10.02;;;3.10;;
55186;SDS011;55457;52.002;5.464;2024-03-23T07:02:43;18.50;;;2.95;;
55186;SDS011;55457;52.002;5.464;2024-03-23T07:05:09;10.65;;;2.63;;
55186;SDS011;55457;52.002;5.464;2024-03-23T07:07:35;10.73;;;2.95;;
55186;SDS011;55457;52.002;5.464;2024-03-23T07:10:01;14.32;;;3.08;;
55186;SDS011;55457;52.002;5.464;2024-03-23T07:12:26;10.45;;;2.88;;
55186;SDS011;55457;52.002;5.464;2024-03-23T07:14:51;16.83;;;3.55;;
55186;SDS011;55457;52.002;5.464;2024-03-23T07:17:17;18.92;;;3.90;;
55186;SDS011;55457;52.002;5.464;2024-03-23T07:19:43;6.30;;;2.42;;
55186;SDS011;55457;52.002;5.464;2024-03-23T07:22:08;8.05;;;2.70;;
55186;SDS011;55457;52.002;5.464;2024-03-23T07:24:34;12.55;;;3.20;;
55186;SDS011;55457;52.002;5.464;2024-03-23T07:26:59;10.90;;;2.50;;
55186;SDS011;55457;52.002;5.464;2024-03-23T07:29:24;14.38;;;3.80;;
55186;SDS011;55457;52.002;5.464;2024-03-23T07:31:50;16.08;;;2.78;;
55186;SDS011;55457;52.002;5.464;2024-03-23T07:34:15;13.32;;;2.92;;
55186;SDS011;55457;52.002;5.464;2024-03-23T07:36:41;13.52;;;3.35;;
55186;SDS011;55457;52.002;5.464;2024-03-23T07:39:06;9.70;;;2.67;;
55186;SDS011;55457;52.002;5.464;2024-03-23T07:41:32;12.70;;;3.47;;
55186;SDS011;55457;52.002;5.464;2024-03-23T07:43:58;9.40;;;2.22;;
55186;SDS011;55457;52.002;5.464;2024-03-23T07:46:23;7.72;;;3.53;;
55186;SDS011;55457;52.002;5.464;2024-03-23T07:48:50;8.60;;;2.15;;
55186;SDS011;55457;52.002;5.464;2024-03-23T07:51:16;11.20;;;2.92;;
55186;SDS011;55457;52.002;5.464;2024-03-23T07:53:44;12.50;;;2.53;;
55186;SDS011;55457;52.002;5.464;2024-03-23T07:56:11;6.10;;;2.17;;
55186;SDS011;55457;52.002;5.464;2024-03-23T07:58:36;6.47;;;2.17;;
55186;SDS011;55457;52.002;5.464;2024-03-23T08:03:35;9.27;;;2.33;;
55186;SDS011;55457;52.002;5.464;2024-03-23T08:06:06;4.75;;;1.92;;
55186;SDS011;55457;52.002;5.464;2024-03-23T08:08:35;6.47;;;2.50;;
55186;SDS011;55457;52.002;5.464;2024-03-23T08:11:01;8.35;;;2.47;;
55186;SDS011;55457;52.002;5.464;2024-03-23T08:13:26;11.60;;;2.67;;
55186;SDS011;55457;52.002;5.464;2024-03-23T08:15:56;8.50;;;2.03;;
55186;SDS011;55457;52.002;5.464;2024-03-23T08:21:00;6.85;;;2.78;;
55186;SDS011;55457;52.002;5.464;2024-03-23T08:23:33;7.47;;;2.00;;
55186;SDS011;55457;52.002;5.464;2024-03-23T08:26:01;7.50;;;3.00;;
55186;SDS011;55457;52.002;5.464;2024-03-23T08:28:27;9.43;;;1.83;;
55186;SDS011;55457;52.002;5.464;2024-03-23T08:30:53;10.05;;;2.33;;
55186;SDS011;55457;52.002;5.464;2024-03-23T08:33:19;5.07;;;2.65;;
55186;SDS011;55457;52.002;5.464;2024-03-23T08:38:20;5.47;;;2.00;;
55186;SDS011;55457;52.002;5.464;2024-03-23T08:40:46;10.50;;;2.25;;
55186;SDS011;55457;52.002;5.464;2024-03-23T08:43:11;5.97;;;1.90;;
55186;SDS011;55457;52.002;5.464;2024-03-23T08:45:36;6.82;;;2.00;;
55186;SDS011;55457;52.002;5.464;2024-03-23T08:48:02;7.55;;;2.55;;
55186;SDS011;55457;52.002;5.464;2024-03-23T08:50:27;11.13;;;2.50;;
55186;SDS011;55457;52.002;5.464;2024-03-23T08:52:52;9.70;;;2.15;;
55186;SDS011;55457;52.002;5.464;2024-03-23T08:55:18;9.65;;;1.90;;
55186;SDS011;55457;52.002;5.464;2024-03-23T08:57:43;8.75;;;1.75;;
55186;SDS011;55457;52.002;5.464;2024-03-23T09:00:09;7.00;;;2.03;;
55186;SDS011;55457;52.002;5.464;2024-03-23T09:02:36;7.60;;;1.90;;
55186;SDS011;55457;52.002;5.464;2024-03-23T09:05:02;6.30;;;1.88;;
55186;SDS011;55457;52.002;5.464;2024-03-23T09:07:30;6.93;;;1.80;;
55186;SDS011;55457;52.002;5.464;2024-03-23T09:09:56;4.68;;;1.40;;
55186;SDS011;55457;52.002;5.464;2024-03-23T09:12:21;7.50;;;2.08;;
55186;SDS011;55457;52.002;5.464;2024-03-23T09:14:46;6.03;;;1.85;;
55186;SDS011;55457;52.002;5.464;2024-03-23T09:17:11;6.97;;;2.28;;
55186;SDS011;55457;52.002;5.464;2024-03-23T09:19:37;9.30;;;1.98;;
55186;SDS011;55457;52.002;5.464;2024-03-23T09:22:02;5.18;;;2.13;;
55186;SDS011;55457;52.002;5.464;2024-03-23T09:24:27;6.63;;;2.15;;
55186;SDS011;55457;52.002;5.464;2024-03-23T09:26:53;7.40;;;2.08;;
55186;SDS011;55457;52.002;5.464;2024-03-23T09:29:18;14.05;;;2.47;;
55186;SDS011;55457;52.002;5.464;2024-03-23T09:31:44;8.27;;;3.00;;
55186;SDS011;55457;52.002;5.464;2024-03-23T09:34:10;7.10;;;1.60;;
55186;SDS011;55457;52.002;5.464;2024-03-23T09:36:35;6.40;;;1.95;;
55186;SDS011;55457;52.002;5.464;2024-03-23T09:39:00;14.43;;;2.40;;
55186;SDS011;55457;52.002;5.464;2024-03-23T09:41:25;10.63;;;1.88;;
55186;SDS011;55457;52.002;5.464;2024-03-23T09:43:54;9.73;;;1.98;;
55186;SDS011;55457;52.002;5.464;2024-03-23T09:46:19;7.78;;;1.88;;
55186;SDS011;55457;52.002;5.464;2024-03-23T09:48:46;4.82;;;1.70;;
55186;SDS011;55457;52.002;5.464;2024-03-23T09:51:12;5.55;;;1.85;;
55186;SDS011;55457;52.002;5.464;2024-03-23T09:53:37;9.18;;;1.90;;
55186;SDS011;55457;52.002;5.464;2024-03-23T09:56:03;7.90;;;1.80;;
55186;SDS011;55457;52.002;5.464;2024-03-23T09:58:29;7.13;;;2.00;;
55186;SDS011;55457;52.002;5.464;2024-03-23T10:00:54;7.85;;;1.83;;
55186;SDS011;55457;52.002;5.464;2024-03-23T10:03:19;8.02;;;1.98;;
55186;SDS011;55457;52.002;5.464;2024-03-23T10:05:45;6.68;;;1.98;;
55186;SDS011;55457;52.002;5.464;2024-03-23T10:10:38;3.70;;;1.73;;
55186;SDS011;55457;52.002;5.464;2024-03-23T10:13:04;5.20;;;2.30;;
55186;SDS011;55457;52.002;5.464;2024-03-23T10:15:29;5.97;;;2.08;;
55186;SDS011;55457;52.002;5.464;2024-03-23T10:17:54;4.10;;;1.42;;
55186;SDS011;55457;52.002;5.464;2024-03-23T10:20:20;5.40;;;2.03;;
55186;SDS011;55457;52.002;5.464;2024-03-23T10:22:48;7.32;;;1.90;;
55186;SDS011;55457;52.002;5.464;2024-03-23T10:25:17;4.13;;;1.50;;
55186;SDS011;55457;52.002;5.464;2024-03-23T10:27:43;6.10;;;1.52;;
55186;SDS011;55457;52.002;5.464;2024-03-23T10:30:12;5.05;;;1.45;;
55186;SDS011;55457;52.002;5.464;2024-03-23T10:32:41;3.20;;;1.40;;
55186;SDS011;55457;52.002;5.464;2024-03-23T10:35:14;6.15;;;1.55;;
55186;SDS011;55457;52.002;5.464;2024-03-23T10:37:47;2.58;;;1.15;;
55186;SDS011;55457;52.002;5.464;2024-03-23T10:40:14;5.45;;;2.45;;
55186;SDS011;55457;52.002;5.464;2024-03-23T10:42:41;7.03;;;2.22;;
55186;SDS011;55457;52.002;5.464;2024-03-23T10:45:07;5.20;;;1.55;;
55186;SDS011;55457;52.002;5.464;2024-03-23T10:47:36;9.95;;;1.58;;
55186;SDS011;55457;52.002;5.464;2024-03-23T10:50:03;6.45;;;1.77;;
55186;SDS011;55457;52.002;5.464;2024-03-23T10:52:30;7.25;;;1.70;;
55186;SDS011;55457;52.002;5.464;2024-03-23T10:54:56;9.23;;;1.60;;
55186;SDS011;55457;52.002;5.464;2024-03-23T10:57:44;5.10;;;1.73;;
55186;SDS011;55457;52.002;5.464;2024-03-23T11:00:26;4.47;;;1.40;;
55186;SDS011;55457;52.002;5.464;2024-03-23T11:02:52;6.95;;;1.80;;
55186;SDS011;55457;52.002;5.464;2024-03-23T11:07:52;2.97;;;1.23;;
55186;SDS011;55457;52.002;5.464;2024-03-23T11:10:28;7.63;;;1.45;;
55186;SDS011;55457;52.002;5.464;2024-03-23T11:12:58;3.60;;;1.25;;
55186;SDS011;55457;52.002;5.464;2024-03-23T11:15:23;3.55;;;1.48;;
55186;SDS011;55457;52.002;5.464;2024-03-23T11:18:04;7.30;;;1.45;;
55186;SDS011;55457;52.002;5.464;2024-03-23T11:20:33;3.53;;;1.50;;
55186;SDS011;55457;52.002;5.464;2024-03-23T11:22:59;2.70;;;1.15;;
55186;SDS011;55457;52.002;5.464;2024-03-23T11:25:28;10.35;;;1.30;;
55186;SDS011;55457;52.002;5.464;2024-03-23T11:27:54;6.10;;;1.60;;
55186;SDS011;55457;52.002;5.464;2024-03-23T11:32:51;5.40;;;1.85;;
55186;SDS011;55457;52.002;5.464;2024-03-23T11:35:28;7.15;;;2.15;;
55186;SDS011;55457;52.002;5.464;2024-03-23T11:40:46;3.10;;;1.23;;
55186;SDS011;55457;52.002;5.464;2024-03-23T11:43:16;5.28;;;1.20;;
55186;SDS011;55457;52.002;5.464;2024-03-23T11:48:14;3.30;;;1.15;;
55186;SDS011;55457;52.002;5.464;2024-03-23T11:50:43;4.82;;;1.27;;
55186;SDS011;55457;52.002;5.464;2024-03-23T11:55:43;4.65;;;1.40;;
55186;SDS011;55457;52.002;5.464;2024-03-23T11:58:10;3.97;;;0.75;;
55186;SDS011;55457;52.002;5.464;2024-03-23T12:00:36;3.55;;;0.90;;
55186;SDS011;55457;52.002;5.464;2024-03-23T12:03:02;3.65;;;1.50;;
55186;SDS011;55457;52.002;5.464;2024-03-23T12:05:28;3.53;;;0.90;;
55186;SDS011;55457;52.002;5.464;2024-03-23T12:07:54;3.03;;;1.13;;
55186;SDS011;55457;52.002;5.464;2024-03-23T12:10:20;3.08;;;0.82;;
55186;SDS011;55457;52.002;5.464;2024-03-23T12:12:45;3.78;;;1.25;;
55186;SDS011;55457;52.002;5.464;2024-03-23T12:15:10;4.40;;;1.13;;
55186;SDS011;55457;52.002;5.464;2024-03-23T12:17:37;3.42;;;0.90;;
55186;SDS011;55457;52.002;5.464;2024-03-23T12:20:03;2.60;;;0.93;;
55186;SDS011;55457;52.002;5.464;2024-03-23T12:22:29;2.60;;;1.02;;
55186;SDS011;55457;52.002;5.464;2024-03-23T12:24:55;5.93;;;1.20;;
55186;SDS011;55457;52.002;5.464;2024-03-23T12:27:20;4.43;;;1.50;;
55186;SDS011;55457;52.002;5.464;2024-03-23T12:29:46;3.05;;;1.02;;
55186;SDS011;55457;52.002;5.464;2024-03-23T12:32:12;4.88;;;1.13;;
55186;SDS011;55457;52.002;5.464;2024-03-23T12:34:38;4.25;;;1.45;;
55186;SDS011;55457;52.002;5.464;2024-03-23T12:37:04;3.25;;;1.42;;
55186;SDS011;55457;52.002;5.464;2024-03-23T12:39:31;8.05;;;1.40;;
55186;SDS011;55457;52.002;5.464;2024-03-23T12:41:56;3.63;;;1.08;;
55186;SDS011;55457;52.002;5.464;2024-03-23T12:44:21;3.85;;;1.00;;
55186;SDS011;55457;52.002;5.464;2024-03-23T12:46:47;3.30;;;0.93;;
55186;SDS011;55457;52.002;5.464;2024-03-23T12:49:12;3.28;;;1.00;;
55186;SDS011;55457;52.002;5.464;2024-03-23T12:51:37;5.30;;;0.82;;
55186;SDS011;55457;52.002;5.464;2024-03-23T12:54:03;1.48;;;0.70;;
55186;SDS011;55457;52.002;5.464;2024-03-23T12:56:28;4.00;;;1.13;;
55186;SDS011;55457;52.002;5.464;2024-03-23T12:58:54;4.07;;;0.95;;
55186;SDS011;55457;52.002;5.464;2024-03-23T13:01:22;6.75;;;1.60;;
55186;SDS011;55457;52.002;5.464;2024-03-23T13:03:50;5.22;;;1.00;;
55186;SDS011;55457;52.002;5.464;2024-03-23T13:06:16;3.47;;;0.98;;
55186;SDS011;55457;52.002;5.464;2024-03-23T13:08:46;2.65;;;0.75;;
55186;SDS011;55457;52.002;5.464;2024-03-23T13:11:12;2.80;;;0.90;;
55186;SDS011;55457;52.002;5.464;2024-03-23T13:13:39;1.95;;;0.70;;
55186;SDS011;55457;52.002;5.464;2024-03-23T13:16:05;2.15;;;0.60;;
55186;SDS011;55457;52.002;5.464;2024-03-23T13:18:30;1.50;;;0.70;;
55186;SDS011;55457;52.002;5.464;2024-03-23T13:20:56;3.88;;;0.70;;
55186;SDS011;55457;52.002;5.464;2024-03-23T13:23:22;3.08;;;1.17;;
55186;SDS011;55457;52.002;5.464;2024-03-23T13:25:51;1.70;;;0.70;;
55186;SDS011;55457;52.002;5.464;2024-03-23T13:28:17;3.30;;;1.15;;
55186;SDS011;55457;52.002;5.464;2024-03-23T13:30:50;3.35;;;0.93;;
55186;SDS011;55457;52.002;5.464;2024-03-23T13:33:18;3.70;;;0.90;;
55186;SDS011;55457;52.002;5.464;2024-03-23T13:35:53;3.78;;;0.85;;
55186;SDS011;55457;52.002;5.464;2024-03-23T13:38:20;3.60;;;0.98;;
55186;SDS011;55457;52.002;5.464;2024-03-23T13:40:58;2.97;;;0.70;;
55186;SDS011;55457;52.002;5.464;2024-03-23T13:43:25;3.42;;;0.60;;
55186;SDS011;55457;52.002;5.464;2024-03-23T13:45:53;2.42;;;1.63;;
55186;SDS011;55457;52.002;5.464;2024-03-23T13:48:20;3.38;;;1.20;;
55186;SDS011;55457;52.002;5.464;2024-03-23T13:50:56;3.35;;;1.15;;
55186;SDS011;55457;52.002;5.464;2024-03-23T13:53:22;4.70;;;1.48;;
55186;SDS011;55457;52.002;5.464;2024-03-23T13:55:48;11.98;;;0.85;;
55186;SDS011;55457;52.002;5.464;2024-03-23T13:58:14;3.65;;;0.90;;
55186;SDS011;55457;52.002;5.464;2024-03-23T14:00:40;3.22;;;1.00;;
55186;SDS011;55457;52.002;5.464;2024-03-23T14:03:05;4.05;;;0.68;;
55186;SDS011;55457;52.002;5.464;2024-03-23T14:05:30;3.65;;;0.90;;
55186;SDS011;55457;52.002;5.464;2024-03-23T14:07:56;4.85;;;0.85;;
55186;SDS011;55457;52.002;5.464;2024-03-23T14:10:21;6.65;;;0.88;;
55186;SDS011;55457;52.002;5.464;2024-03-23T14:12:46;1.83;;;0.57;;
55186;SDS011;55457;52.002;5.464;2024-03-23T14:15:12;2.78;;;0.50;;
55186;SDS011;55457;52.002;5.464;2024-03-23T14:17:37;1.33;;;0.63;;
55186;SDS011;55457;52.002;5.464;2024-03-23T14:20:03;3.65;;;0.60;;
55186;SDS011;55457;52.002;5.464;2024-03-23T14:22:30;2.17;;;0.60;;
55186;SDS011;55457;52.002;5.464;2024-03-23T14:24:56;4.13;;;0.63;;
55186;SDS011;55457;52.002;5.464;2024-03-23T14:27:21;4.53;;;0.60;;
55186;SDS011;55457;52.002;5.464;2024-03-23T14:29:47;2.85;;;0.70;;
55186;SDS011;55457;52.002;5.464;2024-03-23T14:32:12;1.48;;;0.50;;
55186;SDS011;55457;52.002;5.464;2024-03-23T14:34:38;2.40;;;1.08;;
55186;SDS011;55457;52.002;5.464;2024-03-23T14:37:03;3.00;;;0.60;;
55186;SDS011;55457;52.002;5.464;2024-03-23T14:39:30;2.92;;;1.23;;
55186;SDS011;55457;52.002;5.464;2024-03-23T14:41:56;3.85;;;0.70;;
55186;SDS011;55457;52.002;5.464;2024-03-23T14:44:21;3.72;;;0.93;;
55186;SDS011;55457;52.002;5.464;2024-03-23T14:46:47;2.60;;;0.88;;
55186;SDS011;55457;52.002;5.464;2024-03-23T14:49:15;2.25;;;0.80;;
55186;SDS011;55457;52.002;5.464;2024-03-23T14:51:44;2.97;;;0.65;;
55186;SDS011;55457;52.002;5.464;2024-03-23T14:54:09;1.73;;;0.68;;
55186;SDS011;55457;52.002;5.464;2024-03-23T14:56:35;6.65;;;0.90;;
55186;SDS011;55457;52.002;5.464;2024-03-23T14:59:00;5.38;;;0.80;;
55186;SDS011;55457;52.002;5.464;2024-03-23T15:01:25;1.60;;;1.25;;
55186;SDS011;55457;52.002;5.464;2024-03-23T15:03:51;3.40;;;1.05;;
55186;SDS011;55457;52.002;5.464;2024-03-23T15:06:18;3.25;;;0.90;;
55186;SDS011;55457;52.002;5.464;2024-03-23T15:08:44;1.92;;;0.98;;
55186;SDS011;55457;52.002;5.464;2024-03-23T15:11:09;3.90;;;0.70;;
55186;SDS011;55457;52.002;5.464;2024-03-23T15:13:35;3.63;;;1.00;;
55186;SDS011;55457;52.002;5.464;2024-03-23T15:16:01;3.33;;;0.85;;
55186;SDS011;55457;52.002;5.464;2024-03-23T15:18:29;4.47;;;0.93;;
55186;SDS011;55457;52.002;5.464;2024-03-23T15:20:58;6.63;;;1.25;;
55186;SDS011;55457;52.002;5.464;2024-03-23T15:23:27;2.22;;;0.68;;
55186;SDS011;55457;52.002;5.464;2024-03-23T15:25:57;1.70;;;0.73;;
55186;SDS011;55457;52.002;5.464;2024-03-23T15:28:23;2.67;;;0.90;;
55186;SDS011;55457;52.002;5.464;2024-03-23T15:30:51;1.90;;;0.70;;
55186;SDS011;55457;52.002;5.464;2024-03-23T15:33:16;3.80;;;0.60;;
55186;SDS011;55457;52.002;5.464;2024-03-23T15:35:42;3.55;;;0.80;;
55186;SDS011;55457;52.002;5.464;2024-03-23T15:38:07;2.65;;;0.73;;
55186;SDS011;55457;52.002;5.464;2024-03-23T15:40:34;2.00;;;0.68;;
55186;SDS011;55457;52.002;5.464;2024-03-23T15:42:59;4.03;;;0.73;;
55186;SDS011;55457;52.002;5.464;2024-03-23T15:45:25;3.70;;;0.70;;
55186;SDS011;55457;52.002;5.464;2024-03-23T15:47:50;1.80;;;0.40;;
55186;SDS011;55457;52.002;5.464;2024-03-23T15:50:17;3.25;;;0.68;;
55186;SDS011;55457;52.002;5.464;2024-03-23T15:52:42;2.78;;;1.13;;
55186;SDS011;55457;52.002;5.464;2024-03-23T15:55:07;3.67;;;1.10;;